createdAt,value
2022-11-13T00:00:57.164Z,50.877171
2022-11-13T00:01:57.214Z,50.877144
2022-11-13T00:02:58.250Z,50.877144
2022-11-13T00:03:57.156Z,50.877132
2022-11-13T00:04:57.120Z,50.877190
2022-11-13T00:05:57.115Z,50.877182
2022-11-13T00:06:59.419Z,50.877178
2022-11-13T00:07:58.115Z,50.877178
2022-11-13T00:08:57.104Z,50.877140
2022-11-13T00:09:57.082Z,50.877174
2022-11-13T00:10:57.074Z,50.877171
2022-11-13T00:11:57.063Z,50.877182
2022-11-13T00:12:57.057Z,50.877186
2022-11-13T00:13:57.057Z,50.877155
2022-11-13T00:14:57.035Z,50.877144
2022-11-13T00:15:57.020Z,50.877129
2022-11-13T00:16:57.044Z,50.877159
2022-11-13T00:17:57.068Z,50.877144
2022-11-13T00:18:57.004Z,50.877151
2022-11-13T00:19:57.086Z,50.877155
2022-11-13T00:20:56.964Z,50.877110
2022-11-13T00:21:56.980Z,50.877193
2022-11-13T00:22:56.947Z,50.877174
2022-11-13T00:23:57.048Z,50.877129
2022-11-13T00:24:56.932Z,50.877155
2022-11-13T00:25:56.933Z,50.877167
2022-11-13T00:26:56.956Z,50.877182
2022-11-13T00:27:56.908Z,50.877140
2022-11-13T00:28:56.897Z,50.877171
2022-11-13T00:29:56.887Z,50.877182
2022-11-13T00:30:56.865Z,50.877171
2022-11-13T00:31:56.901Z,50.877151
2022-11-13T00:32:56.850Z,50.877151
2022-11-13T00:34:58.859Z,50.877121
2022-11-13T00:35:56.885Z,50.877125
2022-11-13T00:36:56.804Z,50.877136
2022-11-13T00:37:56.800Z,50.877148
2022-11-13T00:38:56.791Z,50.877159
2022-11-13T00:39:59.638Z,50.877167
2022-11-13T00:40:57.787Z,50.877159
2022-11-13T00:41:56.763Z,50.877144
2022-11-13T00:42:56.754Z,50.877144
2022-11-13T00:43:56.740Z,50.877159
2022-11-13T00:44:56.725Z,50.877171
2022-11-13T00:45:56.737Z,50.877148
2022-11-13T00:46:56.710Z,50.877167
2022-11-13T00:47:56.703Z,50.877125
2022-11-13T00:48:56.691Z,50.877110
2022-11-13T00:49:56.754Z,50.877132
2022-11-13T00:50:56.684Z,50.877140
2022-11-13T00:51:56.680Z,50.877151
2022-11-13T00:52:56.658Z,50.877167
2022-11-13T00:53:56.676Z,50.877159
2022-11-13T00:54:56.626Z,50.877171
2022-11-13T00:55:56.743Z,50.877174
2022-11-13T00:56:56.633Z,50.877167
2022-11-13T00:57:56.609Z,50.877193
2022-11-13T00:58:56.611Z,50.877178
2022-11-13T00:59:56.607Z,50.877167
2022-11-13T01:00:56.602Z,50.877167
2022-11-13T01:01:56.618Z,50.877163
2022-11-13T01:02:56.552Z,50.877167
2022-11-13T01:03:56.602Z,50.877167
2022-11-13T01:04:56.533Z,50.877159
2022-11-13T01:05:56.623Z,50.877155
2022-11-13T01:06:56.635Z,50.877148
2022-11-13T01:07:56.514Z,50.877148
2022-11-13T01:08:56.500Z,50.877132
2022-11-13T01:09:56.489Z,50.877148
2022-11-13T01:10:56.470Z,50.877148
2022-11-13T01:11:56.513Z,50.877167
2022-11-13T01:12:56.480Z,50.877171
2022-11-13T01:13:56.454Z,50.877159
2022-11-13T01:14:56.439Z,50.877178
2022-11-13T01:15:56.426Z,50.877167
2022-11-13T01:16:56.470Z,50.877155
2022-11-13T01:17:56.486Z,50.877155
2022-11-13T01:18:56.514Z,50.877136
2022-11-13T01:19:56.400Z,50.877144
2022-11-13T01:20:56.380Z,50.877171
2022-11-13T01:21:56.442Z,50.877171
2022-11-13T01:22:56.386Z,50.877159
2022-11-13T01:23:57.365Z,50.877178
2022-11-13T01:24:56.342Z,50.877190
2022-11-13T01:25:56.332Z,50.877182
2022-11-13T01:26:56.379Z,50.877174
2022-11-13T01:27:56.357Z,50.877163
2022-11-13T01:28:56.302Z,50.877144
2022-11-13T01:29:56.306Z,50.877155
2022-11-13T01:30:56.288Z,50.877136
2022-11-13T01:31:56.292Z,50.877182
2022-11-13T01:32:56.265Z,50.877174
2022-11-13T01:33:56.280Z,50.877151
2022-11-13T01:34:56.249Z,50.877136
2022-11-13T01:35:56.246Z,50.877140
2022-11-13T01:36:56.252Z,50.877182
2022-11-13T01:37:56.301Z,50.877151
2022-11-13T01:38:56.232Z,50.877129
2022-11-13T01:39:56.200Z,50.877117
2022-11-13T01:40:56.203Z,50.877094
2022-11-13T01:41:56.232Z,50.877071
2022-11-13T01:42:56.170Z,50.877121
2022-11-13T01:43:56.173Z,50.877132
2022-11-13T01:44:56.152Z,50.877094
2022-11-13T01:45:56.185Z,50.877148
2022-11-13T01:46:56.133Z,50.877159
2022-11-13T01:47:56.144Z,50.877136
2022-11-13T01:48:56.121Z,50.877148
2022-11-13T01:49:56.110Z,50.877140
2022-11-13T01:50:56.088Z,50.877140
2022-11-13T01:51:56.075Z,50.877144
2022-11-13T01:52:56.084Z,50.877178
2022-11-13T01:53:56.141Z,50.877201
2022-11-13T01:54:56.078Z,50.877197
2022-11-13T01:55:56.050Z,50.877110
2022-11-13T01:56:56.039Z,50.877056
2022-11-13T01:57:56.058Z,50.877087
2022-11-13T01:58:56.020Z,50.877167
2022-11-13T01:59:56.009Z,50.877178
2022-11-13T02:00:56.015Z,50.877148
2022-11-13T02:01:56.071Z,50.877174
2022-11-13T02:02:55.999Z,50.877163
2022-11-13T02:03:55.977Z,50.877174
2022-11-13T02:04:55.968Z,50.877163
2022-11-13T02:05:55.961Z,50.877171
2022-11-13T02:06:56.003Z,50.877193
2022-11-13T02:07:55.928Z,50.877190
2022-11-13T02:08:55.950Z,50.877193
2022-11-13T02:09:55.920Z,50.877190
2022-11-13T02:10:55.908Z,50.877174
2022-11-13T02:11:55.914Z,50.877190
2022-11-13T02:12:55.906Z,50.877163
2022-11-13T02:13:55.878Z,50.877182
2022-11-13T02:14:55.860Z,50.877186
2022-11-13T02:15:55.859Z,50.877171
2022-11-13T02:16:55.837Z,50.877159
2022-11-13T02:17:55.862Z,50.877151
2022-11-13T02:18:55.821Z,50.877171
2022-11-13T02:19:55.806Z,50.877171
2022-11-13T02:20:55.800Z,50.877197
2022-11-13T02:21:55.788Z,50.877201
2022-11-13T02:22:55.787Z,50.877209
2022-11-13T02:23:55.796Z,50.877201
2022-11-13T02:24:55.761Z,50.877182
2022-11-13T02:25:55.834Z,50.877213
2022-11-13T02:26:55.752Z,50.877193
2022-11-13T02:27:55.760Z,50.877205
2022-11-13T02:28:55.785Z,50.877220
2022-11-13T02:29:55.769Z,50.877243
2022-11-13T02:30:55.733Z,50.877182
2022-11-13T02:31:55.701Z,50.877159
2022-11-13T02:32:55.703Z,50.877125
2022-11-13T02:33:55.670Z,50.877178
2022-11-13T02:34:55.674Z,50.877213
2022-11-13T02:35:55.647Z,50.877235
2022-11-13T02:36:55.636Z,50.877190
2022-11-13T02:37:55.626Z,50.877216
2022-11-13T02:38:55.704Z,50.877171
2022-11-13T02:39:55.623Z,50.877213
2022-11-13T02:40:55.681Z,50.877197
2022-11-13T02:41:55.662Z,50.877193
2022-11-13T02:42:55.585Z,50.877148
2022-11-13T02:43:55.579Z,50.877209
2022-11-13T02:44:55.615Z,50.877197
2022-11-13T02:45:55.577Z,50.877251
2022-11-13T02:46:55.627Z,50.877266
2022-11-13T02:47:55.542Z,50.877220
2022-11-13T02:49:27.434Z,50.877209
2022-11-13T02:49:55.533Z,50.877193
2022-11-13T02:50:55.543Z,50.877247
2022-11-13T02:51:55.506Z,50.877224
2022-11-13T02:52:55.549Z,50.877239
2022-11-13T02:53:55.482Z,50.877228
2022-11-13T02:54:55.487Z,50.877243
2022-11-13T02:55:55.470Z,50.877209
2022-11-13T02:56:55.482Z,50.877190
2022-11-13T02:57:55.533Z,50.877193
2022-11-13T02:58:55.451Z,50.877193
2022-11-13T02:59:55.493Z,50.877197
2022-11-13T03:00:55.409Z,50.877197
2022-11-13T03:01:55.499Z,50.877190
2022-11-13T03:02:55.388Z,50.877167
2022-11-13T03:03:57.714Z,50.877167
2022-11-13T03:05:13.332Z,50.877167
2022-11-13T03:05:57.415Z,50.877171
2022-11-13T03:06:55.488Z,50.877171
2022-11-13T03:07:55.384Z,50.877171
2022-11-13T03:08:55.333Z,50.877171
2022-11-13T03:09:55.334Z,50.877171
2022-11-13T03:10:55.311Z,50.877171
2022-11-13T03:11:55.304Z,50.877171
2022-11-13T03:12:55.329Z,50.877171
2022-11-13T03:13:55.357Z,50.877171
2022-11-13T03:14:55.306Z,50.877171
2022-11-13T03:15:55.301Z,50.877171
2022-11-13T03:16:55.297Z,50.877171
2022-11-13T03:17:55.258Z,50.877171
2022-11-13T03:18:55.261Z,50.877171
2022-11-13T03:19:55.260Z,50.877171
2022-11-13T03:20:55.219Z,50.877171
2022-11-13T03:21:55.204Z,50.877171
2022-11-13T03:22:55.189Z,50.877125
2022-11-13T03:23:55.211Z,50.877182
2022-11-13T03:24:55.201Z,50.877186
2022-11-13T03:25:55.163Z,50.877197
2022-11-13T03:26:55.173Z,50.877201
2022-11-13T03:27:55.133Z,50.877201
2022-11-13T03:28:55.165Z,50.877216
2022-11-13T03:29:55.246Z,50.877209
2022-11-13T03:30:55.121Z,50.877213
2022-11-13T03:31:55.098Z,50.877205
2022-11-13T03:32:55.092Z,50.877197
2022-11-13T03:33:55.091Z,50.877228
2022-11-13T03:34:55.077Z,50.877205
2022-11-13T03:35:55.084Z,50.877190
2022-11-13T03:36:55.108Z,50.877174
2022-11-13T03:37:55.162Z,50.877178
2022-11-13T03:38:55.039Z,50.877182
2022-11-13T03:39:55.134Z,50.877190
2022-11-13T03:40:55.019Z,50.877209
2022-11-13T03:41:55.020Z,50.877201
2022-11-13T03:42:55.030Z,50.877193
2022-11-13T03:43:54.993Z,50.877193
2022-11-13T03:44:54.992Z,50.877193
2022-11-13T03:45:55.098Z,50.877193
2022-11-13T03:46:54.961Z,50.877193
2022-11-13T03:47:54.942Z,50.877193
2022-11-13T03:48:54.941Z,50.877193
2022-11-13T03:49:54.952Z,50.877193
2022-11-13T03:50:54.915Z,50.877186
2022-11-13T03:51:54.919Z,50.877178
2022-11-13T03:52:54.893Z,50.877213
2022-11-13T03:53:54.893Z,50.877186
2022-11-13T03:54:54.877Z,50.877190
2022-11-13T03:55:54.882Z,50.877197
2022-11-13T03:56:54.891Z,50.877213
2022-11-13T03:57:54.845Z,50.877197
2022-11-13T03:58:54.851Z,50.877171
2022-11-13T03:59:54.828Z,50.877144
2022-11-13T04:00:54.840Z,50.877144
2022-11-13T04:01:54.992Z,50.877178
2022-11-13T04:02:54.793Z,50.877178
2022-11-13T04:03:54.856Z,50.877186
2022-11-13T04:04:54.793Z,50.877186
2022-11-13T04:05:54.767Z,50.877201
2022-11-13T04:06:54.824Z,50.877213
2022-11-13T04:07:54.776Z,50.877148
2022-11-13T04:08:54.766Z,50.877201
2022-11-13T04:09:54.769Z,50.877163
2022-11-13T04:10:54.726Z,50.877224
2022-11-13T04:11:54.734Z,50.877205
2022-11-13T04:12:54.705Z,50.877201
2022-11-13T04:13:54.723Z,50.877228
2022-11-13T04:14:54.682Z,50.877045
2022-11-13T04:15:54.703Z,50.877235
2022-11-13T04:16:54.673Z,50.877186
2022-11-13T04:17:54.735Z,50.877171
2022-11-13T04:18:54.647Z,50.877235
2022-11-13T04:19:54.630Z,50.877178
2022-11-13T04:20:54.669Z,50.877163
2022-11-13T04:21:54.668Z,50.877266
2022-11-13T04:22:54.625Z,50.877316
2022-11-13T04:23:54.660Z,50.877300
2022-11-13T04:24:54.610Z,50.877331
2022-11-13T04:25:54.601Z,50.877258
2022-11-13T04:26:54.628Z,50.877213
2022-11-13T04:27:54.559Z,50.877201
2022-11-13T04:28:54.565Z,50.877224
2022-11-13T04:29:54.595Z,50.877197
2022-11-13T04:30:54.512Z,50.877094
2022-11-13T04:31:54.564Z,50.877239
2022-11-13T04:32:54.515Z,50.877205
2022-11-13T04:33:54.578Z,50.877159
2022-11-13T04:34:54.498Z,50.877151
2022-11-13T04:35:54.507Z,50.877232
2022-11-13T04:36:54.494Z,50.877254
2022-11-13T04:37:54.592Z,50.877205
2022-11-13T04:38:54.463Z,50.877163
2022-11-13T04:39:54.440Z,50.877174
2022-11-13T04:40:54.490Z,50.877174
2022-11-13T04:41:55.666Z,50.877174
2022-11-13T04:42:55.415Z,50.877174
2022-11-13T04:43:54.466Z,50.877178
2022-11-13T04:44:54.430Z,50.877178
2022-11-13T04:45:54.397Z,50.877266
2022-11-13T04:46:54.387Z,50.877167
2022-11-13T04:47:54.394Z,50.877125
2022-11-13T04:48:54.381Z,50.877125
2022-11-13T04:49:54.423Z,50.877125
2022-11-13T04:50:54.334Z,50.877113
2022-11-13T04:51:54.333Z,50.877155
2022-11-13T04:52:54.339Z,50.877296
2022-11-13T04:53:54.350Z,50.877220
2022-11-13T04:54:54.320Z,50.877243
2022-11-13T04:55:54.293Z,50.877224
2022-11-13T04:56:54.286Z,50.877201
2022-11-13T04:57:54.276Z,50.877274
2022-11-13T04:58:54.277Z,50.877239
2022-11-13T04:59:54.247Z,50.877239
2022-11-13T05:00:54.239Z,50.877239
2022-11-13T05:01:54.273Z,50.877239
2022-11-13T05:02:54.225Z,50.877239
2022-11-13T05:03:54.263Z,50.877239
2022-11-13T05:04:54.198Z,50.877239
2022-11-13T05:05:54.255Z,50.877239
2022-11-13T05:06:54.222Z,50.877239
2022-11-13T05:07:54.200Z,50.877205
2022-11-13T05:08:54.239Z,50.877213
2022-11-13T05:09:54.148Z,50.877224
2022-11-13T05:10:55.138Z,50.877190
2022-11-13T05:11:54.129Z,50.877209
2022-11-13T05:12:54.111Z,50.877228
2022-11-13T05:13:54.103Z,50.877201
2022-11-13T05:14:54.121Z,50.877205
2022-11-13T05:15:54.082Z,50.877193
2022-11-13T05:16:54.116Z,50.877190
2022-11-13T05:17:54.073Z,50.877213
2022-11-13T05:18:54.108Z,50.877197
2022-11-13T05:19:54.065Z,50.877155
2022-11-13T05:20:54.121Z,50.877201
2022-11-13T05:21:54.132Z,50.877205
2022-11-13T05:22:54.022Z,50.877216
2022-11-13T05:23:54.009Z,50.877213
2022-11-13T05:24:54.052Z,50.877190
2022-11-13T05:25:54.000Z,50.877186
2022-11-13T05:26:54.013Z,50.877209
2022-11-13T05:27:53.978Z,50.877193
2022-11-13T05:28:53.994Z,50.877209
2022-11-13T05:29:53.962Z,50.877193
2022-11-13T05:30:53.994Z,50.877186
2022-11-13T05:31:53.965Z,50.877197
2022-11-13T05:32:53.962Z,50.877186
2022-11-13T05:33:54.008Z,50.877228
2022-11-13T05:34:53.914Z,50.877254
2022-11-13T05:35:53.928Z,50.877190
2022-11-13T05:36:53.885Z,50.877205
2022-11-13T05:37:53.970Z,50.877182
2022-11-13T05:38:53.872Z,50.877190
2022-11-13T05:39:53.868Z,50.877216
2022-11-13T05:40:53.849Z,50.877213
2022-11-13T05:41:53.872Z,50.877186
2022-11-13T05:42:53.843Z,50.877140
2022-11-13T05:43:59.032Z,50.877132
2022-11-13T05:44:55.844Z,50.877193
2022-11-13T05:45:53.810Z,50.877213
2022-11-13T05:46:53.780Z,50.877216
2022-11-13T05:47:53.772Z,50.877216
2022-11-13T05:48:53.834Z,50.877216
2022-11-13T05:49:53.764Z,50.877182
2022-11-13T05:50:53.756Z,50.877190
2022-11-13T05:51:53.748Z,50.877182
2022-11-13T05:52:53.732Z,50.877186
2022-11-13T05:53:53.802Z,50.877186
2022-11-13T05:54:53.759Z,50.877209
2022-11-13T05:55:53.720Z,50.877201
2022-11-13T05:56:53.693Z,50.877209
2022-11-13T05:57:53.683Z,50.877220
2022-11-13T05:58:53.686Z,50.877201
2022-11-13T05:59:53.671Z,50.877182
2022-11-13T06:00:53.668Z,50.877171
2022-11-13T06:01:53.706Z,50.877155
2022-11-13T06:02:53.656Z,50.877178
2022-11-13T06:03:53.624Z,50.877171
2022-11-13T06:04:56.544Z,50.877197
2022-11-13T06:05:54.617Z,50.877171
2022-11-13T06:06:53.632Z,50.877235
2022-11-13T06:07:53.599Z,50.877220
2022-11-13T06:08:53.604Z,50.877213
2022-11-13T06:09:53.737Z,50.877235
2022-11-13T06:10:53.562Z,50.877251
2022-11-13T06:11:53.576Z,50.877193
2022-11-13T06:12:53.617Z,50.877220
2022-11-13T06:13:53.573Z,50.877182
2022-11-13T06:14:53.523Z,50.877193
2022-11-13T06:15:53.555Z,50.877224
2022-11-13T06:16:53.581Z,50.877171
2022-11-13T06:17:53.496Z,50.877220
2022-11-13T06:18:53.495Z,50.877197
2022-11-13T06:19:53.476Z,50.877197
2022-11-13T06:20:53.460Z,50.877213
2022-11-13T06:21:53.463Z,50.877209
2022-11-13T06:22:53.447Z,50.877235
2022-11-13T06:23:53.433Z,50.877113
2022-11-13T06:24:53.480Z,50.877121
2022-11-13T06:25:53.495Z,50.877151
2022-11-13T06:26:53.449Z,50.877186
2022-11-13T06:27:53.391Z,50.877159
2022-11-13T06:28:53.394Z,50.877121
2022-11-13T06:29:53.374Z,50.877159
2022-11-13T06:30:53.361Z,50.877163
2022-11-13T06:31:53.372Z,50.877171
2022-11-13T06:32:53.343Z,50.877167
2022-11-13T06:33:53.338Z,50.877220
2022-11-13T06:34:53.315Z,50.877197
2022-11-13T06:35:54.321Z,50.877216
2022-11-13T06:36:53.325Z,50.877190
2022-11-13T06:37:53.295Z,50.877197
2022-11-13T06:38:53.335Z,50.877193
2022-11-13T06:39:53.351Z,50.877197
2022-11-13T06:40:53.343Z,50.877182
2022-11-13T06:41:53.329Z,50.877228
2022-11-13T06:42:53.249Z,50.877213
2022-11-13T06:43:53.230Z,50.877228
2022-11-13T06:44:53.231Z,50.877193
2022-11-13T06:45:53.223Z,50.877228
2022-11-13T06:46:53.208Z,50.877186
2022-11-13T06:47:53.195Z,50.877224
2022-11-13T06:48:53.190Z,50.877159
2022-11-13T06:49:53.186Z,50.877209
2022-11-13T06:50:53.176Z,50.877220
2022-11-13T06:51:53.142Z,50.877209
2022-11-13T06:52:53.145Z,50.877125
2022-11-13T06:53:53.180Z,50.877197
2022-11-13T06:54:53.144Z,50.877171
2022-11-13T06:55:53.194Z,50.877182
2022-11-13T06:56:53.115Z,50.877159
2022-11-13T06:57:53.172Z,50.877190
2022-11-13T06:58:53.111Z,50.877197
2022-11-13T06:59:53.069Z,50.877136
2022-11-13T07:00:53.146Z,50.877121
2022-11-13T07:01:53.058Z,50.877201
2022-11-13T07:02:53.078Z,50.877205
2022-11-13T07:03:53.051Z,50.877213
2022-11-13T07:04:53.178Z,50.877178
2022-11-13T07:05:53.024Z,50.877216
2022-11-13T07:06:53.064Z,50.877235
2022-11-13T07:07:53.112Z,50.877235
2022-11-13T07:08:53.005Z,50.877209
2022-11-13T07:09:52.992Z,50.877205
2022-11-13T07:10:52.964Z,50.877243
2022-11-13T07:11:52.967Z,50.877197
2022-11-13T07:12:54.811Z,50.877190
2022-11-13T07:13:54.026Z,50.877148
2022-11-13T07:14:52.947Z,50.877174
2022-11-13T07:15:52.936Z,50.877201
2022-11-13T07:17:10.041Z,50.877216
2022-11-13T07:17:53.896Z,50.877205
2022-11-13T07:18:52.893Z,50.877201
2022-11-13T07:19:52.908Z,50.877209
2022-11-13T07:20:52.930Z,50.877190
2022-11-13T07:21:52.877Z,50.877197
2022-11-13T07:22:52.869Z,50.877228
2022-11-13T07:23:52.863Z,50.877220
2022-11-13T07:24:52.856Z,50.877216
2022-11-13T07:25:52.830Z,50.877224
2022-11-13T07:26:52.811Z,50.877235
2022-11-13T07:27:52.847Z,50.877224
2022-11-13T07:28:52.791Z,50.877220
2022-11-13T07:29:52.878Z,50.877171
2022-11-13T07:30:52.773Z,50.877171
2022-11-13T07:31:52.750Z,50.877190
2022-11-13T07:32:52.804Z,50.877178
2022-11-13T07:33:52.730Z,50.877224
2022-11-13T07:34:52.740Z,50.877224
2022-11-13T07:35:52.717Z,50.877247
2022-11-13T07:36:52.731Z,50.877209
2022-11-13T07:37:52.688Z,50.877129
2022-11-13T07:38:56.679Z,50.877151
2022-11-13T07:39:53.684Z,50.877132
2022-11-13T07:40:52.677Z,50.877110
2022-11-13T07:41:52.712Z,50.877129
2022-11-13T07:42:52.653Z,50.877148
2022-11-13T07:43:52.678Z,50.877163
2022-11-13T07:44:54.901Z,50.877186
2022-11-13T07:45:53.696Z,50.877163
2022-11-13T07:46:52.614Z,50.877193
2022-11-13T07:47:52.632Z,50.877148
2022-11-13T07:48:52.607Z,50.877178
2022-11-13T07:49:55.372Z,50.877178
2022-11-13T07:50:53.589Z,50.877113
2022-11-13T07:51:52.573Z,50.877094
2022-11-13T07:52:52.560Z,50.877144
2022-11-13T07:53:52.578Z,50.877125
2022-11-13T07:54:52.549Z,50.877193
2022-11-13T07:55:52.525Z,50.877213
2022-11-13T07:56:52.525Z,50.877247
2022-11-13T07:57:52.508Z,50.877201
2022-11-13T07:58:52.519Z,50.877144
2022-11-13T07:59:52.494Z,50.877113
2022-11-13T08:00:53.512Z,50.877224
2022-11-13T08:01:52.534Z,50.877171
2022-11-13T08:02:52.490Z,50.877163
2022-11-13T08:03:52.510Z,50.877193
2022-11-13T08:04:52.447Z,50.877190
2022-11-13T08:05:52.424Z,50.877125
2022-11-13T08:06:52.446Z,50.877102
2022-11-13T08:07:52.439Z,50.877106
2022-11-13T08:08:52.392Z,50.877144
2022-11-13T08:09:52.516Z,50.877048
2022-11-13T08:10:52.384Z,50.877167
2022-11-13T08:11:52.377Z,50.877163
2022-11-13T08:12:52.359Z,50.877193
2022-11-13T08:13:52.346Z,50.877151
2022-11-13T08:14:52.351Z,50.877151
2022-11-13T08:15:52.349Z,50.877140
2022-11-13T08:16:52.355Z,50.877182
2022-11-13T08:17:52.385Z,50.877239
2022-11-13T08:18:53.309Z,50.877258
2022-11-13T08:19:52.327Z,50.877190
2022-11-13T08:20:52.280Z,50.877190
2022-11-13T08:21:52.281Z,50.877125
2022-11-13T08:23:03.495Z,50.877193
2022-11-13T08:23:53.290Z,50.877201
2022-11-13T08:24:52.357Z,50.877239
2022-11-13T08:25:52.252Z,50.877201
2022-11-13T08:26:52.229Z,50.877163
2022-11-13T08:27:52.215Z,50.877140
2022-11-13T08:28:52.228Z,50.877144
2022-11-13T08:29:52.215Z,50.877106
2022-11-13T08:30:52.331Z,50.877151
2022-11-13T08:31:52.166Z,50.877151
2022-11-13T08:32:52.190Z,50.877155
2022-11-13T08:33:52.266Z,50.877144
2022-11-13T08:34:52.187Z,50.877136
2022-11-13T08:35:52.145Z,50.877151
2022-11-13T08:36:52.123Z,50.877132
2022-11-13T08:37:52.119Z,50.877129
2022-11-13T08:38:52.127Z,50.877132
2022-11-13T08:39:52.111Z,50.877132
2022-11-13T08:40:52.087Z,50.877132
2022-11-13T08:41:52.067Z,50.877117
2022-11-13T08:42:52.073Z,50.877098
2022-11-13T08:43:52.056Z,50.877117
2022-11-13T08:44:52.067Z,50.877117
2022-11-13T08:45:52.035Z,50.877125
2022-11-13T08:46:52.019Z,50.877132
2022-11-13T08:47:52.015Z,50.877121
2022-11-13T08:48:52.009Z,50.877140
2022-11-13T08:50:23.989Z,50.877148
2022-11-13T08:50:51.974Z,50.877148
2022-11-13T08:51:51.969Z,50.877148
2022-11-13T08:52:51.988Z,50.877151
2022-11-13T08:53:51.958Z,50.877140
2022-11-13T08:54:51.951Z,50.877136
2022-11-13T08:55:51.950Z,50.877140
2022-11-13T08:56:56.588Z,50.877140
2022-11-13T08:57:53.911Z,50.877136
2022-11-13T08:58:51.913Z,50.877136
2022-11-13T08:59:51.892Z,50.877167
2022-11-13T09:00:51.955Z,50.877148
2022-11-13T09:01:51.905Z,50.877132
2022-11-13T09:02:51.861Z,50.877140
2022-11-13T09:03:51.896Z,50.877125
2022-11-13T09:04:51.838Z,50.877132
2022-11-13T09:05:51.910Z,50.877125
2022-11-13T09:06:51.870Z,50.877136
2022-11-13T09:07:51.812Z,50.877132
2022-11-13T09:08:51.798Z,50.877136
2022-11-13T09:09:51.773Z,50.877125
2022-11-13T09:10:51.780Z,50.877140
2022-11-13T09:11:51.790Z,50.877129
2022-11-13T09:12:51.762Z,50.877113
2022-11-13T09:13:53.522Z,50.877125
2022-11-13T09:14:51.733Z,50.877121
2022-11-13T09:15:51.756Z,50.877125
2022-11-13T09:16:51.717Z,50.877125
2022-11-13T09:17:51.701Z,50.877140
2022-11-13T09:18:51.705Z,50.877159
2022-11-13T09:19:51.683Z,50.877163
2022-11-13T09:20:51.679Z,50.877151
2022-11-13T09:21:51.755Z,50.877132
2022-11-13T09:22:51.656Z,50.877125
2022-11-13T09:23:51.691Z,50.877129
2022-11-13T09:24:51.627Z,50.877132
2022-11-13T09:25:51.624Z,50.877125
2022-11-13T09:26:51.611Z,50.877117
2022-11-13T09:27:51.628Z,50.877117
2022-11-13T09:28:51.616Z,50.877140
2022-11-13T09:29:55.559Z,50.877106
2022-11-13T09:30:52.581Z,50.877110
2022-11-13T09:31:51.566Z,50.877136
2022-11-13T09:32:51.563Z,50.877151
2022-11-13T09:33:51.596Z,50.877148
2022-11-13T09:34:51.542Z,50.877125
2022-11-13T09:35:51.545Z,50.877129
2022-11-13T09:36:51.512Z,50.877144
2022-11-13T09:37:51.582Z,50.877151
2022-11-13T09:38:51.498Z,50.877136
2022-11-13T09:39:51.511Z,50.877129
2022-11-13T09:40:51.513Z,50.877148
2022-11-13T09:41:52.490Z,50.877144
2022-11-13T09:42:51.521Z,50.877125
2022-11-13T09:43:55.219Z,50.877140
2022-11-13T09:44:52.516Z,50.877151
2022-11-13T09:45:51.440Z,50.877174
2022-11-13T09:46:51.429Z,50.877163
2022-11-13T09:47:51.422Z,50.877193
2022-11-13T09:48:51.393Z,50.877178
2022-11-13T09:49:51.418Z,50.877193
2022-11-13T09:50:51.400Z,50.877201
2022-11-13T09:51:51.371Z,50.877193
2022-11-13T09:52:51.358Z,50.877171
2022-11-13T09:53:51.451Z,50.877167
2022-11-13T09:54:51.448Z,50.877136
2022-11-13T09:55:51.324Z,50.877144
2022-11-13T09:56:51.319Z,50.877106
2022-11-13T09:57:51.313Z,50.877113
2022-11-13T09:58:51.292Z,50.877151
2022-11-13T09:59:51.296Z,50.877171
2022-11-13T10:00:51.307Z,50.877205
2022-11-13T10:01:51.278Z,50.877232
2022-11-13T10:02:51.255Z,50.877247
2022-11-13T10:04:01.629Z,50.877171
2022-11-13T10:04:53.239Z,50.877171
2022-11-13T10:05:51.235Z,50.877186
2022-11-13T10:06:51.291Z,50.877262
2022-11-13T10:07:51.218Z,50.877254
2022-11-13T10:08:51.225Z,50.877243
2022-11-13T10:09:51.266Z,50.877243
2022-11-13T10:10:55.442Z,50.877262
2022-11-13T10:11:52.159Z,50.877296
2022-11-13T10:12:51.170Z,50.877293
2022-11-13T10:13:51.143Z,50.877319
2022-11-13T10:14:51.130Z,50.877327
2022-11-13T10:15:51.117Z,50.877319
2022-11-13T10:16:51.173Z,50.877319
2022-11-13T10:17:51.117Z,50.877300
2022-11-13T10:18:51.082Z,50.877319
2022-11-13T10:19:51.075Z,50.877338
2022-11-13T10:20:51.091Z,50.877293
2022-11-13T10:21:54.997Z,50.877243
2022-11-13T10:22:53.047Z,50.877281
2022-11-13T10:23:51.044Z,50.877289
2022-11-13T10:24:51.047Z,50.877270
2022-11-13T10:25:51.139Z,50.877243
2022-11-13T10:26:51.004Z,50.877331
2022-11-13T10:27:51.080Z,50.877304
2022-11-13T10:28:51.733Z,50.877377
2022-11-13T10:29:51.980Z,50.877201
2022-11-13T10:30:51.033Z,50.877071
2022-11-13T10:31:50.995Z,50.876907
2022-11-13T10:32:50.952Z,50.877041
2022-11-13T10:33:50.953Z,50.877022
2022-11-13T10:34:50.936Z,50.877041
2022-11-13T10:35:50.925Z,50.877094
2022-11-13T10:36:50.943Z,50.877182
2022-11-13T10:37:50.894Z,50.877193
2022-11-13T10:38:50.942Z,50.877163
2022-11-13T10:39:50.917Z,50.877167
2022-11-13T10:40:50.871Z,50.877121
2022-11-13T10:41:50.932Z,50.877140
2022-11-13T10:42:50.858Z,50.877151
2022-11-13T10:43:50.920Z,50.877148
2022-11-13T10:44:50.830Z,50.877090
2022-11-13T10:45:50.814Z,50.877117
2022-11-13T10:46:50.889Z,50.877110
2022-11-13T10:48:03.688Z,50.877213
2022-11-13T10:48:52.822Z,50.877216
2022-11-13T10:49:50.777Z,50.877205
2022-11-13T10:50:50.783Z,50.877224
2022-11-13T10:51:50.781Z,50.877178
2022-11-13T10:52:50.743Z,50.877167
2022-11-13T10:53:50.739Z,50.877171
2022-11-13T10:54:50.727Z,50.877167
2022-11-13T10:55:50.759Z,50.877220
2022-11-13T10:56:50.751Z,50.877140
2022-11-13T10:57:56.144Z,50.877193
2022-11-13T10:58:52.699Z,50.877235
2022-11-13T10:59:50.690Z,50.877235
2022-11-13T11:00:50.708Z,50.877193
2022-11-13T11:01:50.689Z,50.877197
2022-11-13T11:02:50.738Z,50.877201
2022-11-13T11:03:50.633Z,50.877163
2022-11-13T11:04:50.636Z,50.877151
2022-11-13T11:05:50.642Z,50.877213
2022-11-13T11:07:19.053Z,50.877151
2022-11-13T11:07:52.667Z,50.877216
2022-11-13T11:08:50.589Z,50.877155
2022-11-13T11:09:50.595Z,50.877144
2022-11-13T11:10:50.604Z,50.877132
2022-11-13T11:11:50.562Z,50.877113
2022-11-13T11:12:50.646Z,50.877151
2022-11-13T11:13:50.609Z,50.877113
2022-11-13T11:14:50.547Z,50.877079
2022-11-13T11:15:50.553Z,50.877106
2022-11-13T11:16:50.594Z,50.877151
2022-11-13T11:17:50.500Z,50.877174
2022-11-13T11:18:50.519Z,50.877167
2022-11-13T11:19:50.523Z,50.877144
2022-11-13T11:20:50.482Z,50.877083
2022-11-13T11:21:50.487Z,50.877094
2022-11-13T11:22:50.447Z,50.877098
2022-11-13T11:23:54.745Z,50.877113
2022-11-13T11:24:51.472Z,50.877125
2022-11-13T11:25:50.424Z,50.877151